createdAt,value
2019-01-30T00:00:55.594Z,7.10
2019-01-30T00:06:00.532Z,9.00
2019-01-30T00:11:05.634Z,4.07
2019-01-30T00:16:10.838Z,6.70
2019-01-30T00:21:15.793Z,6.57
2019-01-30T00:26:20.577Z,7.33
2019-01-30T00:31:25.792Z,5.33
2019-01-30T00:36:30.664Z,8.03
2019-01-30T00:41:35.547Z,6.90
2019-01-30T00:46:40.623Z,10.43
2019-01-30T00:51:45.561Z,9.20
2019-01-30T00:56:50.721Z,10.40
2019-01-30T01:01:55.921Z,9.87
2019-01-30T01:07:00.960Z,8.93
2019-01-30T01:12:06.073Z,6.10
2019-01-30T01:17:10.936Z,15.33
2019-01-30T01:22:15.916Z,11.37
2019-01-30T01:27:20.991Z,11.03
2019-01-30T01:32:26.287Z,14.83
2019-01-30T01:37:31.455Z,14.87
2019-01-30T01:42:36.611Z,10.17
2019-01-30T01:47:41.568Z,13.30
2019-01-30T01:52:46.713Z,17.43
2019-01-30T01:57:51.902Z,16.93
2019-01-30T02:02:57.048Z,18.07
2019-01-30T02:08:01.923Z,17.93
2019-01-30T02:13:07.133Z,17.13
2019-01-30T02:18:12.114Z,17.67
2019-01-30T02:23:16.939Z,12.30
2019-01-30T02:28:21.885Z,13.63
2019-01-30T02:33:27.254Z,15.93
2019-01-30T02:38:32.393Z,14.97
2019-01-30T02:43:37.552Z,13.67
2019-01-30T02:48:42.815Z,16.07
2019-01-30T02:53:48.097Z,13.47
2019-01-30T02:58:53.324Z,11.47
2019-01-30T03:03:58.358Z,12.33
2019-01-30T03:09:03.958Z,16.37
2019-01-30T03:14:09.121Z,12.67
2019-01-30T03:19:14.696Z,14.60
2019-01-30T03:24:19.996Z,13.27
2019-01-30T03:29:24.842Z,14.33
2019-01-30T03:34:30.609Z,9.67
2019-01-30T03:39:35.761Z,12.83
2019-01-30T03:44:40.719Z,10.50
2019-01-30T03:49:45.974Z,15.87
2019-01-30T03:54:50.860Z,12.07
2019-01-30T03:59:56.006Z,14.03
2019-01-30T04:05:01.453Z,13.07
2019-01-30T04:10:07.369Z,13.90
2019-01-30T04:15:12.512Z,12.70
2019-01-30T04:20:18.613Z,8.70
2019-01-30T04:25:23.779Z,11.13
2019-01-30T04:30:29.030Z,10.40
2019-01-30T04:35:34.190Z,9.63
2019-01-30T04:40:38.986Z,9.57
2019-01-30T04:45:44.117Z,9.63
2019-01-30T04:50:49.304Z,7.50
2019-01-30T04:55:54.251Z,8.67
2019-01-30T05:00:59.276Z,8.47
2019-01-30T05:06:04.562Z,9.20
2019-01-30T05:11:09.815Z,7.77
2019-01-30T05:16:14.755Z,9.13
2019-01-30T05:21:20.088Z,6.47
2019-01-30T05:26:25.129Z,6.33
2019-01-30T05:31:30.217Z,7.43
2019-01-30T05:36:35.193Z,8.10
2019-01-30T05:41:40.159Z,11.77
2019-01-30T05:46:45.426Z,7.63
2019-01-30T05:51:50.312Z,10.10
2019-01-30T05:56:55.520Z,8.17
2019-01-30T06:02:00.468Z,7.33
2019-01-30T06:07:05.634Z,9.00
2019-01-30T06:12:10.421Z,9.33
2019-01-30T06:17:15.428Z,10.27
2019-01-30T06:22:20.608Z,9.53
2019-01-30T06:27:25.517Z,8.73
2019-01-30T06:32:30.651Z,10.17
2019-01-30T06:37:35.649Z,9.97
2019-01-30T06:42:40.563Z,6.33
2019-01-30T06:47:45.702Z,12.47
2019-01-30T06:52:51.002Z,10.90
2019-01-30T06:57:56.152Z,10.90
2019-01-30T07:03:01.285Z,12.30
2019-01-30T07:08:06.203Z,8.70
2019-01-30T07:13:11.158Z,9.53
2019-01-30T07:18:16.112Z,9.20
2019-01-30T07:23:21.266Z,9.97
2019-01-30T07:28:26.233Z,8.30
2019-01-30T07:33:31.609Z,9.67
2019-01-30T07:38:36.835Z,10.73
2019-01-30T07:43:42.118Z,11.40
2019-01-30T07:48:47.481Z,13.00
2019-01-30T07:53:54.797Z,10.00
2019-01-30T07:59:00.404Z,10.23
2019-01-30T08:04:05.874Z,10.40
2019-01-30T08:09:11.046Z,11.70
2019-01-30T08:14:16.149Z,11.07
2019-01-30T08:19:21.057Z,9.63
2019-01-30T08:24:26.285Z,8.90
2019-01-30T08:29:31.397Z,9.93
2019-01-30T08:34:36.582Z,5.97
2019-01-30T08:39:42.705Z,8.00
2019-01-30T08:44:47.604Z,8.27
2019-01-30T08:49:52.553Z,9.07
2019-01-30T08:54:57.764Z,8.30
2019-01-30T09:00:03.029Z,6.90
2019-01-30T09:05:09.190Z,4.40
2019-01-30T09:10:17.057Z,9.43
2019-01-30T09:15:23.816Z,11.50
2019-01-30T09:20:29.008Z,8.83
2019-01-30T09:25:34.240Z,9.20
2019-01-30T09:30:39.776Z,6.90
2019-01-30T09:35:44.796Z,8.67
2019-01-30T09:40:49.980Z,8.17
2019-01-30T09:45:55.260Z,7.13
2019-01-30T09:51:00.426Z,6.23
2019-01-30T09:56:05.479Z,6.37
2019-01-30T10:01:10.367Z,11.63
2019-01-30T10:06:15.244Z,8.00
2019-01-30T10:11:20.397Z,10.40
2019-01-30T10:16:25.597Z,8.47
2019-01-30T10:21:30.994Z,9.87
2019-01-30T10:26:35.960Z,8.37
2019-01-30T10:32:00.576Z,8.07
2019-01-30T10:37:08.128Z,9.03
2019-01-30T10:42:14.205Z,6.63
2019-01-30T10:47:19.489Z,9.90
2019-01-30T10:52:24.681Z,8.30
2019-01-30T10:57:29.861Z,8.13
2019-01-30T11:02:35.093Z,10.07
2019-01-30T11:07:39.989Z,13.97
2019-01-30T11:12:45.629Z,6.87
2019-01-30T11:17:50.624Z,7.63
2019-01-30T11:22:55.542Z,7.23
2019-01-30T11:28:00.522Z,7.43
2019-01-30T11:33:05.672Z,8.30
2019-01-30T11:38:10.542Z,10.07
2019-01-30T11:43:15.733Z,8.13
2019-01-30T11:48:21.433Z,9.97
2019-01-30T11:53:26.574Z,12.00
2019-01-30T11:58:32.126Z,9.30
2019-01-30T12:03:37.370Z,8.97
2019-01-30T12:08:42.460Z,8.70
2019-01-30T12:13:47.856Z,8.80
2019-01-30T12:18:52.760Z,8.53
2019-01-30T12:23:57.704Z,13.80
2019-01-30T12:29:02.773Z,12.60
2019-01-30T12:34:07.920Z,14.07
2019-01-30T12:39:13.055Z,10.57
2019-01-30T12:44:17.964Z,9.00
2019-01-30T12:49:24.053Z,10.10
2019-01-30T12:54:29.387Z,10.43
2019-01-30T12:59:34.546Z,9.80
2019-01-30T13:04:39.430Z,7.83
2019-01-30T13:09:44.440Z,9.17
2019-01-30T13:14:49.404Z,10.90
2019-01-30T13:19:54.574Z,11.73
2019-01-30T13:24:59.633Z,10.23
2019-01-30T13:30:07.716Z,11.20
2019-01-30T13:35:12.688Z,11.80
2019-01-30T13:40:23.173Z,12.60
2019-01-30T13:45:29.406Z,14.90
2019-01-30T13:50:34.359Z,13.13
2019-01-30T13:55:39.647Z,13.87
2019-01-30T14:00:44.764Z,13.57
2019-01-30T14:05:49.632Z,15.43
2019-01-30T14:10:54.512Z,15.30
2019-01-30T14:15:59.517Z,15.20
2019-01-30T14:21:04.564Z,15.37
2019-01-30T14:26:09.787Z,17.13
2019-01-30T14:31:15.092Z,19.20
2019-01-30T14:36:20.076Z,17.80
2019-01-30T14:41:25.036Z,17.83
2019-01-30T14:46:30.039Z,20.93
2019-01-30T14:51:34.977Z,20.70
2019-01-30T14:56:39.907Z,21.47
2019-01-30T15:01:44.843Z,21.03
2019-01-30T15:06:50.350Z,23.63
2019-01-30T15:11:55.352Z,23.53
2019-01-30T15:17:00.317Z,20.93
2019-01-30T15:22:05.387Z,23.47
2019-01-30T15:27:10.514Z,26.10
2019-01-30T15:32:15.433Z,32.77
2019-01-30T15:37:22.086Z,22.67
2019-01-30T15:42:27.132Z,21.23
2019-01-30T15:47:32.594Z,18.03
2019-01-30T15:52:37.561Z,16.30
2019-01-30T15:57:42.865Z,13.87
2019-01-30T16:02:47.855Z,11.17
2019-01-30T16:07:53.277Z,19.83
2019-01-30T16:12:58.207Z,15.27
2019-01-30T16:18:03.190Z,16.40
2019-01-30T16:23:08.596Z,11.73
2019-01-30T16:28:13.825Z,15.90
2019-01-30T16:33:18.985Z,14.00
2019-01-30T16:38:24.166Z,11.63
2019-01-30T16:43:29.405Z,9.37
2019-01-30T16:48:34.320Z,12.03
2019-01-30T16:53:39.306Z,9.93
2019-01-30T16:58:44.693Z,7.60
2019-01-30T17:03:50.361Z,9.70
2019-01-30T17:08:55.519Z,10.60
2019-01-30T17:14:00.764Z,8.77
2019-01-30T17:19:06.377Z,8.13
2019-01-30T17:24:11.538Z,8.43
2019-01-30T17:29:28.809Z,9.07
2019-01-30T17:34:34.536Z,6.57
2019-01-30T17:39:39.482Z,9.27
2019-01-30T17:44:47.654Z,8.80
2019-01-30T17:49:53.218Z,9.20
2019-01-30T17:54:58.274Z,8.43
2019-01-30T18:00:04.897Z,9.03
2019-01-30T18:05:09.897Z,8.20
2019-01-30T18:10:17.752Z,8.60
2019-01-30T18:15:23.037Z,8.97
2019-01-30T18:20:27.969Z,11.00
2019-01-30T18:25:32.813Z,10.17
2019-01-30T18:30:37.765Z,10.60
2019-01-30T18:35:43.564Z,10.77
2019-01-30T18:40:49.119Z,10.83
2019-01-30T18:45:54.366Z,8.37
2019-01-30T18:51:00.030Z,7.87
2019-01-30T18:56:04.912Z,7.13
2019-01-30T19:01:10.302Z,6.27
2019-01-30T19:06:16.115Z,6.73
2019-01-30T19:11:21.367Z,6.83
2019-01-30T19:16:28.846Z,6.70
2019-01-30T19:21:34.213Z,7.37
2019-01-30T19:26:39.261Z,9.93
2019-01-30T19:31:44.645Z,7.63
2019-01-30T19:36:50.079Z,10.03
2019-01-30T19:41:55.226Z,6.57
2019-01-30T19:47:00.269Z,5.87
2019-01-30T19:52:05.560Z,7.80
2019-01-30T19:57:10.693Z,7.20
2019-01-30T20:02:16.105Z,8.13
2019-01-30T20:07:22.326Z,8.33
2019-01-30T20:12:28.233Z,8.30
2019-01-30T20:17:35.165Z,8.60
2019-01-30T20:22:42.032Z,9.30
2019-01-30T20:27:51.639Z,8.60
2019-01-30T20:32:57.805Z,10.53
2019-01-30T20:38:08.022Z,6.70
2019-01-30T20:43:13.188Z,6.13
2019-01-30T20:48:19.692Z,5.83
2019-01-30T20:53:26.415Z,6.60
2019-01-30T20:58:34.150Z,5.27
2019-01-30T21:03:40.756Z,6.20
2019-01-30T21:08:46.113Z,8.10
2019-01-30T21:13:59.390Z,8.43
2019-01-30T21:19:04.817Z,7.17
2019-01-30T21:24:09.797Z,5.43
2019-01-30T21:29:15.833Z,8.03
2019-01-30T21:34:21.005Z,7.10
2019-01-30T21:39:25.916Z,7.83
2019-01-30T21:44:31.614Z,7.03
2019-01-30T21:49:36.478Z,5.77
2019-01-30T21:54:41.514Z,6.37
2019-01-30T21:59:46.780Z,6.93
2019-01-30T22:04:51.668Z,6.40
2019-01-30T22:09:56.828Z,7.93
2019-01-30T22:15:01.698Z,4.80
2019-01-30T22:20:09.618Z,7.03
2019-01-30T22:25:20.534Z,6.97
2019-01-30T22:30:31.302Z,7.87
2019-01-30T22:35:36.318Z,6.77
2019-01-30T22:40:41.184Z,6.83
2019-01-30T22:45:46.302Z,8.27
2019-01-30T22:50:51.426Z,5.53
2019-01-30T22:55:56.881Z,5.90
2019-01-30T23:01:32.741Z,6.50
2019-01-30T23:07:10.993Z,5.40
2019-01-30T23:12:44.670Z,6.50
2019-01-30T23:18:52.013Z,5.73
2019-01-30T23:24:32.577Z,5.13
2019-01-30T23:30:10.874Z,4.07
2019-01-30T23:35:33.983Z,6.83
2019-01-30T23:41:25.591Z,5.93
2019-01-30T23:46:45.613Z,6.60
2019-01-30T23:52:17.927Z,5.63
2019-01-30T23:57:45.026Z,6.03
